ENSG Airport Information

Runway Information
Runway 06 Length 3150 ft width 0 ft
Elevation 1619 ft Threshold 0 ft Heading 0
Runway 24 Length 3150 ft Width 0 ft
Elevation 1634 ft Threshold 0 ft Heading 0
Airport Frequencies
Type AFIS Name Sogndal Frequency 119.3 MHZ
Type INFO Name Sogndal In Frequency 121.5 MHZ
Airport Navaids
Type VOR-DME Name Sogndal Frequency 114200 KHZ
Airport Weather Information & NOTAM
ADDS - METARS form results

(1733 UTC 18 March 2019)
Data provider http://aviationweather.gov/metar/data/
 
METAR text: ENSG 181720Z 28007KT 9999 FEW040 01/M09 Q1010 RMK WIND 3806FT 32023KT
Conditions at: ENSG (SOGNDAL/HAUKASEN, NO) observed 1720 UTC 18 March 2019
Temperature: 1.0°C (34°F)
Dewpoint: -9.0°C (16°F) [RH = 47%]
Pressure (altimeter): 29.82 inches Hg (1010.0 mb)
Winds: from the W (280 degrees) at 8 MPH (7 knots; 3.6 m/s)
Visibility: 6 or more miles (10+ km)
Ceiling: at least 12,000 feet AGL
Clouds: few clouds at 4000 feet AGL
Weather: no significant weather observed at this time

METAR text: ENSG 181650Z 31005KT 240V010 9999 FEW040 02/M09 Q1010 RMK WIND 3806FT 33023KT
Conditions at: ENSG (SOGNDAL/HAUKASEN, NO) observed 1650 UTC 18 March 2019
Temperature: 2.0°C (36°F)
Dewpoint: -9.0°C (16°F) [RH = 44%]
Pressure (altimeter): 29.82 inches Hg (1010.0 mb)
Winds: from the NW (310 degrees) at 6 MPH (5 knots; 2.6 m/s)
Visibility: 6 or more miles (10+ km)
Ceiling: at least 12,000 feet AGL
Clouds: few clouds at 4000 feet AGL
Weather: no significant weather observed at this time